sensor_id;sensor_type;location;lat;lon;timestamp;P1;durP1;ratioP1;P2;durP2;ratioP2
46675;SDS011;32412;51.478;5.694;2022-11-20T00:01:25;19.10;;;9.70;;
46675;SDS011;32412;51.478;5.694;2022-11-20T00:03:51;18.35;;;9.85;;
46675;SDS011;32412;51.478;5.694;2022-11-20T00:06:18;19.88;;;9.75;;
46675;SDS011;32412;51.478;5.694;2022-11-20T00:08:46;27.77;;;11.43;;
46675;SDS011;32412;51.478;5.694;2022-11-20T00:11:13;22.42;;;10.77;;
46675;SDS011;32412;51.478;5.694;2022-11-20T00:13:40;19.75;;;10.05;;
46675;SDS011;32412;51.478;5.694;2022-11-20T00:16:08;21.90;;;11.43;;
46675;SDS011;32412;51.478;5.694;2022-11-20T00:18:35;21.83;;;10.68;;
46675;SDS011;32412;51.478;5.694;2022-11-20T00:21:05;22.95;;;11.13;;
46675;SDS011;32412;51.478;5.694;2022-11-20T00:23:36;21.35;;;11.20;;
46675;SDS011;32412;51.478;5.694;2022-11-20T00:26:04;23.80;;;11.18;;
46675;SDS011;32412;51.478;5.694;2022-11-20T00:28:31;25.77;;;11.60;;
46675;SDS011;32412;51.478;5.694;2022-11-20T00:31:00;23.55;;;11.32;;
46675;SDS011;32412;51.478;5.694;2022-11-20T00:33:29;23.33;;;11.48;;
46675;SDS011;32412;51.478;5.694;2022-11-20T00:35:58;21.23;;;10.73;;
46675;SDS011;32412;51.478;5.694;2022-11-20T00:38:26;23.38;;;10.73;;
46675;SDS011;32412;51.478;5.694;2022-11-20T00:40:56;25.58;;;12.07;;
46675;SDS011;32412;51.478;5.694;2022-11-20T00:43:26;25.30;;;12.43;;
46675;SDS011;32412;51.478;5.694;2022-11-20T00:46:06;28.52;;;11.80;;
46675;SDS011;32412;51.478;5.694;2022-11-20T00:48:33;21.33;;;11.05;;
46675;SDS011;32412;51.478;5.694;2022-11-20T00:50:59;24.98;;;12.00;;
46675;SDS011;32412;51.478;5.694;2022-11-20T00:53:25;25.50;;;11.27;;
46675;SDS011;32412;51.478;5.694;2022-11-20T00:55:52;20.70;;;10.82;;
46675;SDS011;32412;51.478;5.694;2022-11-20T00:58:19;25.40;;;12.30;;
46675;SDS011;32412;51.478;5.694;2022-11-20T01:00:45;23.88;;;11.65;;
46675;SDS011;32412;51.478;5.694;2022-11-20T01:03:11;31.33;;;12.75;;
46675;SDS011;32412;51.478;5.694;2022-11-20T01:05:37;24.90;;;12.13;;
46675;SDS011;32412;51.478;5.694;2022-11-20T01:08:02;28.77;;;12.50;;
46675;SDS011;32412;51.478;5.694;2022-11-20T01:10:28;27.63;;;12.88;;
46675;SDS011;32412;51.478;5.694;2022-11-20T01:12:54;25.85;;;12.75;;
46675;SDS011;32412;51.478;5.694;2022-11-20T01:18:03;29.85;;;12.00;;
46675;SDS011;32412;51.478;5.694;2022-11-20T01:20:30;28.52;;;12.35;;
46675;SDS011;32412;51.478;5.694;2022-11-20T01:22:59;30.63;;;12.77;;
46675;SDS011;32412;51.478;5.694;2022-11-20T01:25:25;25.20;;;12.50;;
46675;SDS011;32412;51.478;5.694;2022-11-20T01:27:50;25.20;;;11.27;;
46675;SDS011;32412;51.478;5.694;2022-11-20T01:30:16;27.27;;;12.68;;
46675;SDS011;32412;51.478;5.694;2022-11-20T01:32:42;21.70;;;11.23;;
46675;SDS011;32412;51.478;5.694;2022-11-20T01:35:07;29.27;;;11.93;;
46675;SDS011;32412;51.478;5.694;2022-11-20T01:37:34;26.98;;;12.55;;
46675;SDS011;32412;51.478;5.694;2022-11-20T01:40:00;24.17;;;11.65;;
46675;SDS011;32412;51.478;5.694;2022-11-20T01:42:26;25.33;;;12.57;;
46675;SDS011;32412;51.478;5.694;2022-11-20T01:48:11;25.65;;;11.90;;
46675;SDS011;32412;51.478;5.694;2022-11-20T01:50:37;25.50;;;12.05;;
46675;SDS011;32412;51.478;5.694;2022-11-20T01:53:06;30.52;;;12.85;;
46675;SDS011;32412;51.478;5.694;2022-11-20T01:55:36;23.00;;;11.20;;
46675;SDS011;32412;51.478;5.694;2022-11-20T01:58:08;26.90;;;13.18;;
46675;SDS011;32412;51.478;5.694;2022-11-20T02:00:34;24.95;;;11.77;;
46675;SDS011;32412;51.478;5.694;2022-11-20T02:03:01;25.70;;;13.02;;
46675;SDS011;32412;51.478;5.694;2022-11-20T02:05:38;26.25;;;13.20;;
46675;SDS011;32412;51.478;5.694;2022-11-20T02:08:07;25.38;;;12.13;;
46675;SDS011;32412;51.478;5.694;2022-11-20T02:10:33;26.25;;;12.48;;
46675;SDS011;32412;51.478;5.694;2022-11-20T02:12:59;27.92;;;12.82;;
46675;SDS011;32412;51.478;5.694;2022-11-20T02:15:44;28.08;;;13.23;;
46675;SDS011;32412;51.478;5.694;2022-11-20T02:18:10;25.85;;;11.68;;
46675;SDS011;32412;51.478;5.694;2022-11-20T02:20:39;29.02;;;13.00;;
46675;SDS011;32412;51.478;5.694;2022-11-20T02:23:08;29.65;;;13.73;;
46675;SDS011;32412;51.478;5.694;2022-11-20T02:25:40;30.10;;;12.70;;
46675;SDS011;32412;51.478;5.694;2022-11-20T02:28:07;27.63;;;11.88;;
46675;SDS011;32412;51.478;5.694;2022-11-20T02:30:36;27.05;;;12.52;;
46675;SDS011;32412;51.478;5.694;2022-11-20T02:33:01;28.73;;;13.20;;
46675;SDS011;32412;51.478;5.694;2022-11-20T02:37:53;30.63;;;13.63;;
46675;SDS011;32412;51.478;5.694;2022-11-20T02:40:21;34.10;;;13.90;;
46675;SDS011;32412;51.478;5.694;2022-11-20T02:42:47;32.28;;;14.23;;
46675;SDS011;32412;51.478;5.694;2022-11-20T02:45:13;29.75;;;13.60;;
46675;SDS011;32412;51.478;5.694;2022-11-20T02:47:38;33.35;;;14.15;;
46675;SDS011;32412;51.478;5.694;2022-11-20T02:50:04;30.20;;;14.13;;
46675;SDS011;32412;51.478;5.694;2022-11-20T02:52:31;26.30;;;12.70;;
46675;SDS011;32412;51.478;5.694;2022-11-20T02:54:56;27.63;;;13.40;;
46675;SDS011;32412;51.478;5.694;2022-11-20T02:57:22;23.77;;;12.15;;
46675;SDS011;32412;51.478;5.694;2022-11-20T02:59:48;26.55;;;12.52;;
46675;SDS011;32412;51.478;5.694;2022-11-20T03:02:13;25.70;;;13.10;;
46675;SDS011;32412;51.478;5.694;2022-11-20T03:04:39;26.02;;;12.57;;
46675;SDS011;32412;51.478;5.694;2022-11-20T03:07:05;25.23;;;12.10;;
46675;SDS011;32412;51.478;5.694;2022-11-20T03:09:31;22.75;;;11.82;;
46675;SDS011;32412;51.478;5.694;2022-11-20T03:11:56;28.88;;;12.63;;
46675;SDS011;32412;51.478;5.694;2022-11-20T03:14:22;23.13;;;12.45;;
46675;SDS011;32412;51.478;5.694;2022-11-20T03:16:48;23.67;;;11.50;;
46675;SDS011;32412;51.478;5.694;2022-11-20T03:19:13;24.08;;;12.02;;
46675;SDS011;32412;51.478;5.694;2022-11-20T03:21:39;25.75;;;12.57;;
46675;SDS011;32412;51.478;5.694;2022-11-20T03:24:05;25.13;;;12.07;;
46675;SDS011;32412;51.478;5.694;2022-11-20T03:26:32;26.50;;;11.98;;
46675;SDS011;32412;51.478;5.694;2022-11-20T03:28:59;22.27;;;11.40;;
46675;SDS011;32412;51.478;5.694;2022-11-20T03:31:32;25.85;;;12.88;;
46675;SDS011;32412;51.478;5.694;2022-11-20T03:33:59;25.00;;;12.00;;
46675;SDS011;32412;51.478;5.694;2022-11-20T03:36:26;24.35;;;12.10;;
46675;SDS011;32412;51.478;5.694;2022-11-20T03:38:53;23.40;;;11.73;;
46675;SDS011;32412;51.478;5.694;2022-11-20T03:41:23;24.67;;;12.30;;
46675;SDS011;32412;51.478;5.694;2022-11-20T03:43:54;27.35;;;12.68;;
46675;SDS011;32412;51.478;5.694;2022-11-20T03:46:23;26.85;;;13.00;;
46675;SDS011;32412;51.478;5.694;2022-11-20T03:48:49;23.60;;;12.88;;
46675;SDS011;32412;51.478;5.694;2022-11-20T03:51:16;23.20;;;11.68;;
46675;SDS011;32412;51.478;5.694;2022-11-20T03:53:45;26.02;;;12.48;;
46675;SDS011;32412;51.478;5.694;2022-11-20T03:56:12;26.02;;;13.02;;
46675;SDS011;32412;51.478;5.694;2022-11-20T03:58:40;28.80;;;12.60;;
46675;SDS011;32412;51.478;5.694;2022-11-20T04:01:07;25.77;;;12.05;;
46675;SDS011;32412;51.478;5.694;2022-11-20T04:03:35;26.70;;;12.35;;
46675;SDS011;32412;51.478;5.694;2022-11-20T04:06:05;28.65;;;12.50;;
46675;SDS011;32412;51.478;5.694;2022-11-20T04:08:33;30.50;;;12.73;;
46675;SDS011;32412;51.478;5.694;2022-11-20T04:11:15;25.10;;;12.35;;
46675;SDS011;32412;51.478;5.694;2022-11-20T04:13:41;25.60;;;12.43;;
46675;SDS011;32412;51.478;5.694;2022-11-20T04:16:10;25.10;;;11.55;;
46675;SDS011;32412;51.478;5.694;2022-11-20T04:18:36;27.67;;;12.77;;
46675;SDS011;32412;51.478;5.694;2022-11-20T04:21:03;23.33;;;12.05;;
46675;SDS011;32412;51.478;5.694;2022-11-20T04:23:29;24.23;;;12.48;;
46675;SDS011;32412;51.478;5.694;2022-11-20T04:26:00;27.92;;;12.95;;
46675;SDS011;32412;51.478;5.694;2022-11-20T04:28:27;30.75;;;13.25;;
46675;SDS011;32412;51.478;5.694;2022-11-20T04:30:52;28.15;;;13.25;;
46675;SDS011;32412;51.478;5.694;2022-11-20T04:33:18;27.95;;;13.07;;
46675;SDS011;32412;51.478;5.694;2022-11-20T04:35:44;24.48;;;12.45;;
46675;SDS011;32412;51.478;5.694;2022-11-20T04:38:12;27.48;;;12.27;;
46675;SDS011;32412;51.478;5.694;2022-11-20T04:40:38;24.92;;;12.52;;
46675;SDS011;32412;51.478;5.694;2022-11-20T04:43:03;25.67;;;13.10;;
46675;SDS011;32412;51.478;5.694;2022-11-20T04:45:29;24.33;;;12.43;;
46675;SDS011;32412;51.478;5.694;2022-11-20T04:47:55;27.63;;;12.38;;
46675;SDS011;32412;51.478;5.694;2022-11-20T04:50:20;26.50;;;13.75;;
46675;SDS011;32412;51.478;5.694;2022-11-20T04:52:46;29.73;;;13.88;;
46675;SDS011;32412;51.478;5.694;2022-11-20T04:55:12;30.10;;;13.02;;
46675;SDS011;32412;51.478;5.694;2022-11-20T04:57:38;26.55;;;12.90;;
46675;SDS011;32412;51.478;5.694;2022-11-20T05:00:04;29.58;;;13.98;;
46675;SDS011;32412;51.478;5.694;2022-11-20T05:02:30;25.23;;;12.88;;
46675;SDS011;32412;51.478;5.694;2022-11-20T05:04:57;27.73;;;12.98;;
46675;SDS011;32412;51.478;5.694;2022-11-20T05:07:22;26.90;;;13.00;;
46675;SDS011;32412;51.478;5.694;2022-11-20T05:09:48;29.60;;;13.32;;
46675;SDS011;32412;51.478;5.694;2022-11-20T05:12:14;27.90;;;13.25;;
46675;SDS011;32412;51.478;5.694;2022-11-20T05:14:39;26.92;;;13.38;;
46675;SDS011;32412;51.478;5.694;2022-11-20T05:17:05;28.20;;;13.32;;
46675;SDS011;32412;51.478;5.694;2022-11-20T05:19:31;30.15;;;12.52;;
46675;SDS011;32412;51.478;5.694;2022-11-20T05:21:57;24.88;;;11.90;;
46675;SDS011;32412;51.478;5.694;2022-11-20T05:24:22;29.73;;;13.68;;
46675;SDS011;32412;51.478;5.694;2022-11-20T05:26:48;30.55;;;12.45;;
46675;SDS011;32412;51.478;5.694;2022-11-20T05:29:14;28.27;;;13.18;;
46675;SDS011;32412;51.478;5.694;2022-11-20T05:31:40;24.67;;;12.93;;
46675;SDS011;32412;51.478;5.694;2022-11-20T05:34:06;26.30;;;12.85;;
46675;SDS011;32412;51.478;5.694;2022-11-20T05:36:32;31.83;;;13.38;;
46675;SDS011;32412;51.478;5.694;2022-11-20T05:38:58;27.27;;;13.13;;
46675;SDS011;32412;51.478;5.694;2022-11-20T05:41:24;28.17;;;13.35;;
46675;SDS011;32412;51.478;5.694;2022-11-20T05:43:50;30.17;;;13.40;;
46675;SDS011;32412;51.478;5.694;2022-11-20T05:46:17;27.15;;;13.82;;
46675;SDS011;32412;51.478;5.694;2022-11-20T05:48:44;27.48;;;14.10;;
46675;SDS011;32412;51.478;5.694;2022-11-20T05:51:11;29.67;;;13.75;;
46675;SDS011;32412;51.478;5.694;2022-11-20T05:53:41;29.90;;;13.52;;
46675;SDS011;32412;51.478;5.694;2022-11-20T05:56:12;26.00;;;13.38;;
46675;SDS011;32412;51.478;5.694;2022-11-20T05:58:42;26.70;;;12.88;;
46675;SDS011;32412;51.478;5.694;2022-11-20T06:01:10;28.25;;;13.85;;
46675;SDS011;32412;51.478;5.694;2022-11-20T06:03:47;30.08;;;14.15;;
46675;SDS011;32412;51.478;5.694;2022-11-20T06:06:15;24.67;;;12.82;;
46675;SDS011;32412;51.478;5.694;2022-11-20T06:08:42;29.40;;;13.32;;
46675;SDS011;32412;51.478;5.694;2022-11-20T06:11:09;29.05;;;12.77;;
46675;SDS011;32412;51.478;5.694;2022-11-20T06:13:37;24.70;;;11.77;;
46675;SDS011;32412;51.478;5.694;2022-11-20T06:16:03;23.95;;;12.30;;
46675;SDS011;32412;51.478;5.694;2022-11-20T06:18:29;26.25;;;13.50;;
46675;SDS011;32412;51.478;5.694;2022-11-20T06:21:14;26.15;;;13.02;;
46675;SDS011;32412;51.478;5.694;2022-11-20T06:23:42;22.42;;;12.02;;
46675;SDS011;32412;51.478;5.694;2022-11-20T06:26:10;26.70;;;12.85;;
46675;SDS011;32412;51.478;5.694;2022-11-20T06:28:38;26.20;;;12.48;;
46675;SDS011;32412;51.478;5.694;2022-11-20T06:31:04;26.67;;;13.13;;
46675;SDS011;32412;51.478;5.694;2022-11-20T06:33:31;27.73;;;12.73;;
46675;SDS011;32412;51.478;5.694;2022-11-20T06:35:57;27.20;;;14.13;;
46675;SDS011;32412;51.478;5.694;2022-11-20T06:38:24;23.52;;;12.65;;
46675;SDS011;32412;51.478;5.694;2022-11-20T06:40:50;25.77;;;13.23;;
46675;SDS011;32412;51.478;5.694;2022-11-20T06:43:16;26.23;;;12.43;;
46675;SDS011;32412;51.478;5.694;2022-11-20T06:45:41;24.35;;;12.15;;
46675;SDS011;32412;51.478;5.694;2022-11-20T06:48:07;24.38;;;12.88;;
46675;SDS011;32412;51.478;5.694;2022-11-20T06:50:34;26.52;;;13.07;;
46675;SDS011;32412;51.478;5.694;2022-11-20T06:53:02;28.23;;;12.93;;
46675;SDS011;32412;51.478;5.694;2022-11-20T06:55:29;28.10;;;13.23;;
46675;SDS011;32412;51.478;5.694;2022-11-20T06:57:56;24.25;;;12.48;;
46675;SDS011;32412;51.478;5.694;2022-11-20T07:00:22;27.08;;;13.07;;
46675;SDS011;32412;51.478;5.694;2022-11-20T07:02:50;29.45;;;12.63;;
46675;SDS011;32412;51.478;5.694;2022-11-20T07:05:16;22.95;;;11.70;;
46675;SDS011;32412;51.478;5.694;2022-11-20T07:07:42;27.85;;;12.75;;
46675;SDS011;32412;51.478;5.694;2022-11-20T07:10:08;23.30;;;12.00;;
46675;SDS011;32412;51.478;5.694;2022-11-20T07:12:34;25.90;;;12.85;;
46675;SDS011;32412;51.478;5.694;2022-11-20T07:15:00;25.52;;;13.23;;
46675;SDS011;32412;51.478;5.694;2022-11-20T07:17:26;28.20;;;13.02;;
46675;SDS011;32412;51.478;5.694;2022-11-20T07:19:52;23.63;;;13.18;;
46675;SDS011;32412;51.478;5.694;2022-11-20T07:22:18;29.27;;;13.93;;
46675;SDS011;32412;51.478;5.694;2022-11-20T07:24:46;26.13;;;13.20;;
46675;SDS011;32412;51.478;5.694;2022-11-20T07:27:12;25.65;;;12.05;;
46675;SDS011;32412;51.478;5.694;2022-11-20T07:29:38;24.48;;;12.40;;
46675;SDS011;32412;51.478;5.694;2022-11-20T07:32:03;29.25;;;13.55;;
46675;SDS011;32412;51.478;5.694;2022-11-20T07:34:29;27.75;;;13.70;;
46675;SDS011;32412;51.478;5.694;2022-11-20T07:36:55;27.27;;;12.20;;
46675;SDS011;32412;51.478;5.694;2022-11-20T07:39:20;25.33;;;13.15;;
46675;SDS011;32412;51.478;5.694;2022-11-20T07:41:49;24.90;;;13.10;;
46675;SDS011;32412;51.478;5.694;2022-11-20T07:44:15;26.35;;;13.52;;
46675;SDS011;32412;51.478;5.694;2022-11-20T07:46:40;23.92;;;12.18;;
46675;SDS011;32412;51.478;5.694;2022-11-20T07:49:06;25.50;;;12.48;;
46675;SDS011;32412;51.478;5.694;2022-11-20T07:51:32;27.73;;;12.70;;
46675;SDS011;32412;51.478;5.694;2022-11-20T07:53:57;25.52;;;13.48;;
46675;SDS011;32412;51.478;5.694;2022-11-20T07:56:23;25.80;;;12.98;;
46675;SDS011;32412;51.478;5.694;2022-11-20T07:58:49;29.48;;;13.15;;
46675;SDS011;32412;51.478;5.694;2022-11-20T08:01:14;24.20;;;12.10;;
46675;SDS011;32412;51.478;5.694;2022-11-20T08:03:40;23.08;;;12.32;;
46675;SDS011;32412;51.478;5.694;2022-11-20T08:06:09;25.30;;;13.65;;
46675;SDS011;32412;51.478;5.694;2022-11-20T08:08:35;21.15;;;12.45;;
46675;SDS011;32412;51.478;5.694;2022-11-20T08:11:01;23.42;;;12.40;;
46675;SDS011;32412;51.478;5.694;2022-11-20T08:16:29;19.75;;;11.05;;
46675;SDS011;32412;51.478;5.694;2022-11-20T08:18:57;25.00;;;12.57;;
46675;SDS011;32412;51.478;5.694;2022-11-20T08:21:23;23.35;;;12.98;;
46675;SDS011;32412;51.478;5.694;2022-11-20T08:23:49;24.80;;;12.70;;
46675;SDS011;32412;51.478;5.694;2022-11-20T08:26:14;22.20;;;12.32;;
46675;SDS011;32412;51.478;5.694;2022-11-20T08:28:40;23.63;;;11.90;;
46675;SDS011;32412;51.478;5.694;2022-11-20T08:31:06;23.88;;;12.40;;
46675;SDS011;32412;51.478;5.694;2022-11-20T08:33:31;21.88;;;12.18;;
46675;SDS011;32412;51.478;5.694;2022-11-20T08:36:01;24.13;;;13.32;;
46675;SDS011;32412;51.478;5.694;2022-11-20T08:38:28;25.58;;;12.55;;
46675;SDS011;32412;51.478;5.694;2022-11-20T08:41:01;23.17;;;12.68;;
46675;SDS011;32412;51.478;5.694;2022-11-20T08:43:46;26.73;;;14.05;;
46675;SDS011;32412;51.478;5.694;2022-11-20T08:46:12;35.00;;;14.93;;
46675;SDS011;32412;51.478;5.694;2022-11-20T08:48:38;30.45;;;15.43;;
46675;SDS011;32412;51.478;5.694;2022-11-20T08:51:04;28.75;;;14.70;;
46675;SDS011;32412;51.478;5.694;2022-11-20T08:53:29;31.13;;;14.10;;
46675;SDS011;32412;51.478;5.694;2022-11-20T08:55:56;29.67;;;15.00;;
46675;SDS011;32412;51.478;5.694;2022-11-20T08:58:22;31.50;;;15.80;;
46675;SDS011;32412;51.478;5.694;2022-11-20T09:00:48;34.13;;;17.15;;
46675;SDS011;32412;51.478;5.694;2022-11-20T09:03:13;35.80;;;17.08;;
46675;SDS011;32412;51.478;5.694;2022-11-20T09:05:39;32.33;;;16.80;;
46675;SDS011;32412;51.478;5.694;2022-11-20T09:08:05;29.10;;;15.85;;
46675;SDS011;32412;51.478;5.694;2022-11-20T09:10:30;30.20;;;16.42;;
46675;SDS011;32412;51.478;5.694;2022-11-20T09:12:57;30.40;;;15.70;;
46675;SDS011;32412;51.478;5.694;2022-11-20T09:15:23;34.40;;;16.48;;
46675;SDS011;32412;51.478;5.694;2022-11-20T09:17:51;60.42;;;17.58;;
46675;SDS011;32412;51.478;5.694;2022-11-20T09:20:17;30.38;;;14.65;;
46675;SDS011;32412;51.478;5.694;2022-11-20T09:22:43;26.45;;;14.70;;
46675;SDS011;32412;51.478;5.694;2022-11-20T09:25:09;26.95;;;14.93;;
46675;SDS011;32412;51.478;5.694;2022-11-20T09:27:35;34.17;;;15.07;;
46675;SDS011;32412;51.478;5.694;2022-11-20T09:30:00;33.65;;;15.70;;
46675;SDS011;32412;51.478;5.694;2022-11-20T09:32:27;31.10;;;14.88;;
46675;SDS011;32412;51.478;5.694;2022-11-20T09:34:52;31.92;;;15.20;;
46675;SDS011;32412;51.478;5.694;2022-11-20T09:37:18;33.75;;;16.60;;
46675;SDS011;32412;51.478;5.694;2022-11-20T09:39:44;29.25;;;15.10;;
46675;SDS011;32412;51.478;5.694;2022-11-20T09:54:37;35.95;;;16.98;;
46675;SDS011;32412;51.478;5.694;2022-11-20T09:56:33;44.20;;;17.83;;
46675;SDS011;32412;51.478;5.694;2022-11-20T09:59:03;44.35;;;18.35;;
46675;SDS011;32412;51.478;5.694;2022-11-20T10:01:33;46.85;;;18.15;;
46675;SDS011;32412;51.478;5.694;2022-11-20T10:04:02;50.33;;;18.40;;
46675;SDS011;32412;51.478;5.694;2022-11-20T10:06:41;60.47;;;21.05;;
46675;SDS011;32412;51.478;5.694;2022-11-20T10:09:33;102.70;;;23.95;;
46675;SDS011;32412;51.478;5.694;2022-11-20T10:12:14;56.00;;;20.77;;
46675;SDS011;32412;51.478;5.694;2022-11-20T10:14:57;56.88;;;19.60;;
46675;SDS011;32412;51.478;5.694;2022-11-20T10:17:54;48.80;;;20.48;;
46675;SDS011;32412;51.478;5.694;2022-11-20T10:25:44;60.45;;;21.80;;
46675;SDS011;32412;51.478;5.694;2022-11-20T10:28:15;55.10;;;19.73;;
46675;SDS011;32412;51.478;5.694;2022-11-20T10:31:35;52.90;;;20.98;;
46675;SDS011;32412;51.478;5.694;2022-11-20T10:34:07;106.80;;;25.35;;
46675;SDS011;32412;51.478;5.694;2022-11-20T10:36:44;49.30;;;19.98;;
46675;SDS011;32412;51.478;5.694;2022-11-20T10:41:47;50.38;;;19.83;;
46675;SDS011;32412;51.478;5.694;2022-11-20T10:44:17;49.95;;;20.30;;
46675;SDS011;32412;51.478;5.694;2022-11-20T10:47:05;49.53;;;19.98;;
46675;SDS011;32412;51.478;5.694;2022-11-20T10:49:41;53.33;;;20.40;;
46675;SDS011;32412;51.478;5.694;2022-11-20T10:52:18;43.13;;;19.45;;
46675;SDS011;32412;51.478;5.694;2022-11-20T10:58:16;51.55;;;22.33;;
46675;SDS011;32412;51.478;5.694;2022-11-20T11:00:45;63.17;;;22.30;;
46675;SDS011;32412;51.478;5.694;2022-11-20T11:03:27;104.15;;;25.10;;
46675;SDS011;32412;51.478;5.694;2022-11-20T11:06:01;55.67;;;20.52;;
46675;SDS011;32412;51.478;5.694;2022-11-20T11:08:35;54.13;;;20.67;;
46675;SDS011;32412;51.478;5.694;2022-11-20T11:16:31;46.92;;;20.52;;
46675;SDS011;32412;51.478;5.694;2022-11-20T11:19:04;107.78;;;26.38;;
46675;SDS011;32412;51.478;5.694;2022-11-20T11:21:57;52.28;;;21.45;;
46675;SDS011;32412;51.478;5.694;2022-11-20T11:24:27;53.65;;;20.10;;
46675;SDS011;32412;51.478;5.694;2022-11-20T11:26:57;66.30;;;21.73;;
46675;SDS011;32412;51.478;5.694;2022-11-20T11:29:29;50.70;;;20.02;;
46675;SDS011;32412;51.478;5.694;2022-11-20T11:34:42;49.70;;;21.55;;
46675;SDS011;32412;51.478;5.694;2022-11-20T11:37:18;53.45;;;20.40;;
46675;SDS011;32412;51.478;5.694;2022-11-20T11:39:49;53.63;;;20.27;;
46675;SDS011;32412;51.478;5.694;2022-11-20T11:42:16;52.30;;;20.02;;
46675;SDS011;32412;51.478;5.694;2022-11-20T11:44:46;49.72;;;20.42;;
46675;SDS011;32412;51.478;5.694;2022-11-20T11:55:54;53.15;;;22.05;;
46675;SDS011;32412;51.478;5.694;2022-11-20T11:58:33;46.88;;;20.95;;
46675;SDS011;32412;51.478;5.694;2022-11-20T12:03:42;53.53;;;21.20;;
46675;SDS011;32412;51.478;5.694;2022-11-20T12:06:16;52.28;;;21.67;;
46675;SDS011;32412;51.478;5.694;2022-11-20T12:08:44;53.00;;;21.40;;
46675;SDS011;32412;51.478;5.694;2022-11-20T12:11:20;51.97;;;21.20;;
46675;SDS011;32412;51.478;5.694;2022-11-20T12:14:13;55.42;;;23.42;;
46675;SDS011;32412;51.478;5.694;2022-11-20T12:16:48;53.45;;;21.85;;
46675;SDS011;32412;51.478;5.694;2022-11-20T12:19:15;53.92;;;22.08;;
46675;SDS011;32412;51.478;5.694;2022-11-20T12:21:45;48.13;;;20.98;;
46675;SDS011;32412;51.478;5.694;2022-11-20T12:29:56;53.00;;;22.13;;
46675;SDS011;32412;51.478;5.694;2022-11-20T12:41:05;56.45;;;22.20;;
46675;SDS011;32412;51.478;5.694;2022-11-20T12:43:45;54.13;;;23.03;;
46675;SDS011;32412;51.478;5.694;2022-11-20T12:46:51;55.10;;;20.48;;
46675;SDS011;32412;51.478;5.694;2022-11-20T12:49:50;50.88;;;21.38;;
46675;SDS011;32412;51.478;5.694;2022-11-20T12:52:38;56.03;;;22.20;;
46675;SDS011;32412;51.478;5.694;2022-11-20T12:55:16;47.45;;;21.33;;
46675;SDS011;32412;51.478;5.694;2022-11-20T12:58:05;52.25;;;21.27;;
46675;SDS011;32412;51.478;5.694;2022-11-20T13:01:29;53.97;;;22.52;;
46675;SDS011;32412;51.478;5.694;2022-11-20T13:06:51;62.60;;;23.40;;
46675;SDS011;32412;51.478;5.694;2022-11-20T13:09:17;55.28;;;22.92;;
46675;SDS011;32412;51.478;5.694;2022-11-20T13:14:53;55.80;;;22.85;;
46675;SDS011;32412;51.478;5.694;2022-11-20T13:17:34;55.00;;;21.05;;
46675;SDS011;32412;51.478;5.694;2022-11-20T13:20:20;54.35;;;21.90;;
46675;SDS011;32412;51.478;5.694;2022-11-20T13:22:47;56.53;;;22.92;;
46675;SDS011;32412;51.478;5.694;2022-11-20T13:25:27;57.58;;;23.95;;
46675;SDS011;32412;51.478;5.694;2022-11-20T13:27:54;57.00;;;23.60;;
46675;SDS011;32412;51.478;5.694;2022-11-20T13:30:25;52.28;;;21.30;;
46675;SDS011;32412;51.478;5.694;2022-11-20T13:33:04;57.90;;;23.65;;
46675;SDS011;32412;51.478;5.694;2022-11-20T13:35:37;51.33;;;21.92;;
46675;SDS011;32412;51.478;5.694;2022-11-20T13:38:07;62.40;;;22.45;;
46675;SDS011;32412;51.478;5.694;2022-11-20T13:40:35;60.05;;;23.67;;
46675;SDS011;32412;51.478;5.694;2022-11-20T13:45:54;57.03;;;23.27;;
46675;SDS011;32412;51.478;5.694;2022-11-20T13:48:22;55.95;;;23.33;;
46675;SDS011;32412;51.478;5.694;2022-11-20T13:53:52;52.28;;;22.08;;
46675;SDS011;32412;51.478;5.694;2022-11-20T13:56:34;52.78;;;21.80;;
46675;SDS011;32412;51.478;5.694;2022-11-20T14:01:31;57.03;;;21.15;;
46675;SDS011;32412;51.478;5.694;2022-11-20T14:03:57;61.05;;;23.80;;
46675;SDS011;32412;51.478;5.694;2022-11-20T14:06:28;55.30;;;22.88;;
46675;SDS011;32412;51.478;5.694;2022-11-20T14:08:56;58.10;;;23.50;;
46675;SDS011;32412;51.478;5.694;2022-11-20T14:11:24;61.72;;;24.38;;
46675;SDS011;32412;51.478;5.694;2022-11-20T14:13:56;61.25;;;23.98;;
46675;SDS011;32412;51.478;5.694;2022-11-20T14:16:27;56.53;;;23.85;;
46675;SDS011;32412;51.478;5.694;2022-11-20T14:18:55;59.00;;;23.17;;
46675;SDS011;32412;51.478;5.694;2022-11-20T14:21:26;56.85;;;22.75;;
46675;SDS011;32412;51.478;5.694;2022-11-20T14:24:09;61.15;;;23.33;;
46675;SDS011;32412;51.478;5.694;2022-11-20T14:26:36;59.00;;;22.95;;
46675;SDS011;32412;51.478;5.694;2022-11-20T14:29:11;56.33;;;22.80;;
46675;SDS011;32412;51.478;5.694;2022-11-20T14:31:51;56.20;;;22.27;;
46675;SDS011;32412;51.478;5.694;2022-11-20T14:34:19;61.15;;;23.27;;
46675;SDS011;32412;51.478;5.694;2022-11-20T14:37:00;56.75;;;21.83;;
46675;SDS011;32412;51.478;5.694;2022-11-20T14:39:32;52.72;;;21.75;;
46675;SDS011;32412;51.478;5.694;2022-11-20T14:41:59;54.05;;;22.35;;
46675;SDS011;32412;51.478;5.694;2022-11-20T14:44:27;57.38;;;22.80;;
46675;SDS011;32412;51.478;5.694;2022-11-20T14:46:57;56.13;;;22.98;;
46675;SDS011;32412;51.478;5.694;2022-11-20T14:49:25;53.80;;;21.48;;
46675;SDS011;32412;51.478;5.694;2022-11-20T14:52:00;57.08;;;23.65;;
46675;SDS011;32412;51.478;5.694;2022-11-20T14:54:47;47.27;;;17.33;;
46675;SDS011;32412;51.478;5.694;2022-11-20T14:57:31;61.13;;;24.02;;
46675;SDS011;32412;51.478;5.694;2022-11-20T15:02:41;63.65;;;25.15;;
46675;SDS011;32412;51.478;5.694;2022-11-20T15:05:08;68.28;;;24.13;;
46675;SDS011;32412;51.478;5.694;2022-11-20T15:07:35;62.90;;;24.35;;
46675;SDS011;32412;51.478;5.694;2022-11-20T15:10:11;64.50;;;24.70;;
46675;SDS011;32412;51.478;5.694;2022-11-20T15:12:40;63.35;;;24.08;;
46675;SDS011;32412;51.478;5.694;2022-11-20T15:15:15;71.83;;;26.73;;
46675;SDS011;32412;51.478;5.694;2022-11-20T15:17:45;72.93;;;26.02;;
46675;SDS011;32412;51.478;5.694;2022-11-20T15:20:13;74.38;;;26.05;;
46675;SDS011;32412;51.478;5.694;2022-11-20T15:22:40;88.45;;;29.42;;
46675;SDS011;32412;51.478;5.694;2022-11-20T15:25:16;81.47;;;28.88;;
46675;SDS011;32412;51.478;5.694;2022-11-20T15:27:43;87.32;;;32.05;;
46675;SDS011;32412;51.478;5.694;2022-11-20T15:30:13;88.53;;;28.58;;
46675;SDS011;32412;51.478;5.694;2022-11-20T15:32:42;101.72;;;33.00;;
46675;SDS011;32412;51.478;5.694;2022-11-20T15:35:08;89.47;;;31.50;;
46675;SDS011;32412;51.478;5.694;2022-11-20T15:37:35;86.50;;;27.60;;
46675;SDS011;32412;51.478;5.694;2022-11-20T15:40:04;94.97;;;34.55;;
46675;SDS011;32412;51.478;5.694;2022-11-20T15:42:31;82.53;;;30.13;;
46675;SDS011;32412;51.478;5.694;2022-11-20T15:44:57;90.68;;;34.00;;
46675;SDS011;32412;51.478;5.694;2022-11-20T15:47:24;85.18;;;27.20;;
46675;SDS011;32412;51.478;5.694;2022-11-20T15:49:59;83.75;;;29.02;;
46675;SDS011;32412;51.478;5.694;2022-11-20T15:52:25;95.05;;;31.55;;
46675;SDS011;32412;51.478;5.694;2022-11-20T15:54:51;85.22;;;30.77;;
46675;SDS011;32412;51.478;5.694;2022-11-20T15:57:17;85.40;;;28.15;;
46675;SDS011;32412;51.478;5.694;2022-11-20T15:59:43;85.10;;;27.00;;